Time;durP1;ratioP1;P1;durP2;ratioP2;P2;SDS_P1;SDS_P2;PMS_P1;PMS_P2;Temp;Humidity;BMP_temperature;BMP_pressure;BME280_temperature;BME280_humidity;BME280_pressure;Samples;Min_cycle;Max_cycle;Signal;HPM_P1;HPM_P2
2023/08/17 00:01:51;;;;;;;1.90;1.70;;;24.30;99.90;;;;;;4947987;28;21040;-82
2023/08/17 00:04:20;;;;;;;2.33;2.00;;;24.30;99.90;;;;;;4949932;28;20748;-82
2023/08/17 00:06:56;;;;;;;2.10;1.90;;;24.30;99.90;;;;;;4951972;28;20942;-82
2023/08/17 00:09:24;;;;;;;2.37;1.90;;;24.30;99.90;;;;;;4950492;28;20473;-82
2023/08/17 00:11:51;;;;;;;3.63;2.07;;;24.30;99.90;;;;;;4951742;29;20816;-83
2023/08/17 00:14:17;;;;;;;8.43;2.50;;;24.30;99.90;;;;;;4950432;29;20453;-82
2023/08/17 00:16:44;;;;;;;4.83;2.00;;;24.30;99.90;;;;;;4945301;28;20465;-82
2023/08/17 00:19:11;;;;;;;3.33;2.00;;;24.30;99.90;;;;;;4948022;28;20461;-83
2023/08/17 00:21:38;;;;;;;4.10;2.40;;;24.20;99.90;;;;;;4950255;28;20559;-82
2023/08/17 00:24:06;;;;;;;2.37;2.10;;;24.20;99.90;;;;;;4942324;28;20490;-82
2023/08/17 00:26:33;;;;;;;2.50;2.30;;;24.20;99.90;;;;;;4935027;28;20471;-82
2023/08/17 00:29:00;;;;;;;2.10;1.90;;;24.20;99.90;;;;;;4936447;28;20452;-82
2023/08/17 00:31:27;;;;;;;2.40;2.20;;;24.20;99.90;;;;;;4916408;28;20468;-82
2023/08/17 00:33:54;;;;;;;2.40;2.20;;;24.20;99.90;;;;;;4945882;28;20784;-81
2023/08/17 00:36:21;;;;;;;3.10;1.97;;;24.20;99.90;;;;;;4948262;29;20469;-82
2023/08/17 00:38:48;;;;;;;2.50;2.30;;;24.20;99.90;;;;;;4949927;28;20505;-82
2023/08/17 00:41:16;;;;;;;2.80;2.10;;;24.20;99.90;;;;;;4949651;28;20525;-82
2023/08/17 00:43:43;;;;;;;3.20;2.17;;;24.20;99.90;;;;;;4951533;28;20479;-82
2023/08/17 00:46:11;;;;;;;2.27;2.07;;;24.20;99.90;;;;;;4931696;28;20462;-82
2023/08/17 00:48:38;;;;;;;2.40;2.20;;;24.20;99.90;;;;;;4947714;28;20726;-82
2023/08/17 00:51:06;;;;;;;3.57;2.07;;;24.10;99.90;;;;;;4940196;29;21041;-82
2023/08/17 00:53:36;;;;;;;2.63;2.10;;;24.10;99.90;;;;;;4936028;28;20503;-82
2023/08/17 00:56:04;;;;;;;2.93;2.00;;;24.20;99.90;;;;;;4935512;28;20924;-82
2023/08/17 00:58:34;;;;;;;3.47;2.70;;;24.10;99.90;;;;;;4936387;28;20473;-83
2023/08/17 01:01:02;;;;;;;2.83;1.97;;;24.10;99.90;;;;;;4934600;28;20471;-82
2023/08/17 01:03:30;;;;;;;7.40;3.43;;;24.10;99.90;;;;;;4919627;29;20467;-82
2023/08/17 01:06:02;;;;;;;2.10;2.00;;;24.10;99.90;;;;;;4936128;28;20453;-82
2023/08/17 01:08:30;;;;;;;2.90;2.30;;;24.10;99.90;;;;;;4934743;28;21097;-82
2023/08/17 01:11:06;;;;;;;2.53;2.33;;;24.10;99.90;;;;;;4944060;28;20464;-81
2023/08/17 01:13:39;;;;;;;2.30;2.10;;;24.10;99.90;;;;;;4927132;28;20468;-81
2023/08/17 01:16:13;;;;;;;2.23;2.13;;;24.10;99.90;;;;;;4925694;28;20467;-81
2023/08/17 01:18:41;;;;;;;2.77;2.40;;;24.00;99.90;;;;;;4924799;28;20465;-80
2023/08/17 01:21:11;;;;;;;2.67;2.47;;;24.00;99.90;;;;;;4927344;28;20454;-80
2023/08/17 01:23:39;;;;;;;2.43;2.23;;;24.00;99.90;;;;;;4927612;28;20775;-81
2023/08/17 01:26:06;;;;;;;2.20;2.10;;;24.00;99.90;;;;;;4927488;28;20491;-81
2023/08/17 01:28:33;;;;;;;2.23;2.03;;;24.10;99.90;;;;;;4925953;28;20477;-81
2023/08/17 01:31:06;;;;;;;2.70;2.47;;;24.10;99.90;;;;;;4928532;28;20466;-81
2023/08/17 01:33:38;;;;;;;1.87;1.77;;;24.00;99.90;;;;;;4928999;28;20828;-82
2023/08/17 01:36:12;;;;;;;2.67;2.13;;;24.00;99.90;;;;;;4931301;28;20466;-82
2023/08/17 01:38:42;;;;;;;3.40;2.47;;;24.00;99.90;;;;;;4926407;28;20921;-82
2023/08/17 01:41:15;;;;;;;1.93;1.83;;;24.00;99.90;;;;;;4927160;29;20855;-82
2023/08/17 01:43:45;;;;;;;2.30;2.10;;;24.00;99.90;;;;;;4909551;29;20564;-82
2023/08/17 01:46:16;;;;;;;2.93;2.40;;;24.00;99.90;;;;;;4926696;28;20532;-82
2023/08/17 01:48:43;;;;;;;1.90;1.80;;;24.00;99.90;;;;;;4924403;28;20469;-82
2023/08/17 01:51:11;;;;;;;2.50;2.30;;;24.00;99.90;;;;;;4910948;29;20921;-82
2023/08/17 01:53:39;;;;;;;2.90;2.10;;;24.00;99.90;;;;;;4927463;28;20974;-82
2023/08/17 01:56:06;;;;;;;2.27;2.07;;;24.00;99.90;;;;;;4925871;28;20478;-82
2023/08/17 01:58:34;;;;;;;3.33;3.03;;;24.00;99.90;;;;;;4927812;28;21224;-82
2023/08/17 02:01:02;;;;;;;2.13;1.93;;;24.00;99.90;;;;;;4926229;29;20465;-82
2023/08/17 02:03:29;;;;;;;2.30;2.10;;;24.00;99.90;;;;;;4929485;28;20496;-82
2023/08/17 02:05:57;;;;;;;2.00;1.80;;;23.90;99.90;;;;;;4930114;29;20455;-82
2023/08/17 02:08:24;;;;;;;2.73;2.30;;;23.90;99.90;;;;;;4942314;28;20469;-82
2023/08/17 02:10:53;;;;;;;2.90;2.70;;;23.90;99.90;;;;;;4946870;29;21182;-82
2023/08/17 02:13:20;;;;;;;3.00;2.57;;;23.90;99.90;;;;;;4944198;28;20454;-82
2023/08/17 02:15:48;;;;;;;1.87;1.73;;;23.90;99.90;;;;;;4943717;28;20470;-83
2023/08/17 02:18:15;;;;;;;2.20;2.00;;;23.90;99.90;;;;;;4945092;28;20472;-83
2023/08/17 02:20:42;;;;;;;2.47;2.27;;;23.90;99.90;;;;;;4947208;28;20468;-82
2023/08/17 02:23:09;;;;;;;2.30;2.10;;;23.90;99.90;;;;;;4941084;28;20485;-80
2023/08/17 02:25:39;;;;;;;2.23;2.03;;;23.90;99.90;;;;;;4937742;28;20481;-80
2023/08/17 02:28:07;;;;;;;2.70;2.50;;;23.90;99.90;;;;;;4932216;28;20460;-80
2023/08/17 02:30:34;;;;;;;3.20;2.57;;;23.90;99.90;;;;;;4922090;28;20474;-80
2023/08/17 02:33:03;;;;;;;2.33;2.13;;;23.90;99.90;;;;;;4930218;29;20458;-79
2023/08/17 02:35:31;;;;;;;2.93;2.10;;;23.90;99.90;;;;;;4927924;28;21565;-79
2023/08/17 02:37:57;;;;;;;2.70;2.50;;;23.90;99.90;;;;;;4932308;28;20470;-79
2023/08/17 02:40:24;;;;;;;2.87;2.10;;;23.90;99.90;;;;;;4924266;28;20476;-79
2023/08/17 02:42:51;;;;;;;3.83;2.30;;;23.90;99.90;;;;;;4925976;28;20576;-81
2023/08/17 02:45:19;;;;;;;2.90;2.20;;;23.90;99.90;;;;;;4925209;28;20463;-81
2023/08/17 02:47:46;;;;;;;2.90;2.47;;;23.90;99.90;;;;;;4930010;28;21368;-81
2023/08/17 02:50:13;;;;;;;2.50;2.30;;;23.90;99.90;;;;;;4926407;28;20831;-81
2023/08/17 02:52:40;;;;;;;2.20;2.00;;;23.80;99.90;;;;;;4927292;28;20495;-80
2023/08/17 02:55:07;;;;;;;2.30;2.10;;;23.90;99.90;;;;;;4926000;28;20469;-81
2023/08/17 02:57:34;;;;;;;2.43;2.10;;;23.80;99.90;;;;;;4926205;28;20461;-81
2023/08/17 03:00:00;;;;;;;3.60;2.70;;;23.80;99.90;;;;;;4923020;28;20458;-80
2023/08/17 03:02:28;;;;;;;2.73;1.77;;;23.80;99.90;;;;;;4925834;28;20716;-81
2023/08/17 03:04:56;;;;;;;2.23;1.97;;;23.80;99.90;;;;;;4928474;28;20962;-81
2023/08/17 03:07:22;;;;;;;2.63;2.43;;;23.80;99.90;;;;;;4928265;28;20469;-81
2023/08/17 03:09:49;;;;;;;2.40;2.20;;;23.80;99.90;;;;;;4926505;28;20468;-81
2023/08/17 03:12:16;;;;;;;2.60;2.40;;;23.80;99.90;;;;;;4927204;28;20470;-80
2023/08/17 03:14:43;;;;;;;2.07;1.90;;;23.80;99.90;;;;;;4926831;28;20455;-80
2023/08/17 03:17:09;;;;;;;2.87;2.40;;;23.80;99.90;;;;;;4926774;28;21013;-82
2023/08/17 03:19:37;;;;;;;1.93;1.80;;;23.80;99.90;;;;;;4925670;28;20560;-81
2023/08/17 03:22:04;;;;;;;3.60;2.57;;;23.80;99.90;;;;;;4927917;28;20507;-81
2023/08/17 03:24:31;;;;;;;2.60;2.40;;;23.80;99.90;;;;;;4928815;28;20476;-81
2023/08/17 03:26:58;;;;;;;2.90;2.60;;;23.80;99.90;;;;;;4928520;28;20480;-81
2023/08/17 03:29:25;;;;;;;2.13;1.93;;;23.80;99.90;;;;;;4929615;28;20879;-82
2023/08/17 03:31:52;;;;;;;2.67;2.43;;;23.80;99.90;;;;;;4933542;28;20983;-82
2023/08/17 03:34:19;;;;;;;2.77;2.50;;;23.80;99.90;;;;;;4936150;28;20545;-82
2023/08/17 03:36:47;;;;;;;2.60;2.40;;;23.80;99.90;;;;;;4934797;28;20460;-81
2023/08/17 03:39:14;;;;;;;2.50;2.30;;;23.70;99.90;;;;;;4931850;28;20473;-82
2023/08/17 03:41:42;;;;;;;2.80;2.60;;;23.80;99.90;;;;;;4926394;28;20716;-82
2023/08/17 03:44:09;;;;;;;2.43;2.23;;;23.80;99.90;;;;;;4934416;28;20468;-82
2023/08/17 03:46:36;;;;;;;3.30;2.10;;;23.70;99.90;;;;;;4928040;28;20475;-82
2023/08/17 03:49:03;;;;;;;3.37;2.07;;;23.80;99.90;;;;;;4928003;28;20473;-82
2023/08/17 03:51:29;;;;;;;4.07;3.00;;;23.70;99.90;;;;;;4928687;28;20475;-82
2023/08/17 03:53:57;;;;;;;5.03;2.13;;;23.70;99.90;;;;;;4932391;28;20463;-82
2023/08/17 03:56:24;;;;;;;3.07;2.20;;;23.70;99.90;;;;;;4929893;28;21454;-82
2023/08/17 03:58:51;;;;;;;4.00;2.40;;;23.70;99.90;;;;;;4931336;28;20463;-81
2023/08/17 04:01:18;;;;;;;2.47;1.70;;;23.70;99.90;;;;;;4928750;28;20481;-82
2023/08/17 04:03:44;;;;;;;1.87;1.77;;;23.70;99.90;;;;;;4931977;28;20864;-82
2023/08/17 04:06:11;;;;;;;3.53;2.70;;;23.70;99.90;;;;;;4933571;28;20571;-82
2023/08/17 04:08:38;;;;;;;2.57;2.37;;;23.70;99.90;;;;;;4931692;28;20463;-81
2023/08/17 04:11:06;;;;;;;2.97;1.67;;;23.70;99.90;;;;;;4927653;28;20464;-80
2023/08/17 04:13:33;;;;;;;2.90;2.30;;;23.70;99.90;;;;;;4930621;28;20470;-80
2023/08/17 04:16:00;;;;;;;2.27;2.13;;;23.70;99.90;;;;;;4926111;28;20471;-80
2023/08/17 04:18:27;;;;;;;2.30;2.10;;;23.70;99.90;;;;;;4928007;28;21174;-80
2023/08/17 04:20:53;;;;;;;2.60;2.20;;;23.60;99.90;;;;;;4926373;28;20476;-80
2023/08/17 04:23:20;;;;;;;2.80;2.53;;;23.70;99.90;;;;;;4925115;28;20496;-80
2023/08/17 04:25:48;;;;;;;2.87;2.67;;;23.70;99.90;;;;;;4927500;28;20837;-81
2023/08/17 04:28:16;;;;;;;2.50;2.20;;;23.70;99.90;;;;;;4927825;28;20471;-81
2023/08/17 04:30:43;;;;;;;2.40;2.23;;;23.60;99.90;;;;;;4925292;28;20995;-81
2023/08/17 04:33:10;;;;;;;2.30;1.90;;;23.60;99.90;;;;;;4925163;28;20464;-81
2023/08/17 04:35:37;;;;;;;2.17;2.00;;;23.60;99.90;;;;;;4926361;28;20473;-81
2023/08/17 04:38:04;;;;;;;2.60;2.40;;;23.70;99.90;;;;;;4927389;28;20472;-81
2023/08/17 04:40:30;;;;;;;2.53;1.63;;;23.60;99.90;;;;;;4925580;28;20465;-82
2023/08/17 04:42:57;;;;;;;3.70;2.27;;;23.60;99.90;;;;;;4923803;28;20486;-81
2023/08/17 04:45:25;;;;;;;2.70;2.13;;;23.60;99.90;;;;;;4922864;28;21086;-81
2023/08/17 04:47:52;;;;;;;2.40;2.20;;;23.60;99.90;;;;;;4928296;28;20465;-81
2023/08/17 04:50:19;;;;;;;1.93;1.77;;;23.60;99.90;;;;;;4927029;28;20487;-81
2023/08/17 04:52:46;;;;;;;2.47;2.27;;;23.60;99.90;;;;;;4926174;28;20486;-81
2023/08/17 04:55:15;;;;;;;3.00;2.70;;;23.60;99.90;;;;;;4922908;28;21065;-81
2023/08/17 04:57:41;;;;;;;2.43;2.23;;;23.60;99.90;;;;;;4928057;28;20472;-81
2023/08/17 05:00:09;;;;;;;2.43;2.23;;;23.60;99.90;;;;;;4926292;28;21003;-80
2023/08/17 05:02:38;;;;;;;2.30;2.10;;;23.60;99.90;;;;;;4925900;28;20479;-81
2023/08/17 05:05:06;;;;;;;2.30;2.10;;;23.60;99.90;;;;;;4927577;28;20455;-80
2023/08/17 05:07:33;;;;;;;1.93;1.73;;;23.60;99.90;;;;;;4928128;28;20813;-80
2023/08/17 05:10:00;;;;;;;2.27;2.07;;;23.60;99.90;;;;;;4929345;28;20453;-81
2023/08/17 05:12:27;;;;;;;2.43;2.23;;;23.60;99.90;;;;;;4927088;29;20473;-81
2023/08/17 05:14:54;;;;;;;2.13;2.03;;;23.60;99.90;;;;;;4925740;28;21341;-81
2023/08/17 05:17:20;;;;;;;2.53;2.00;;;23.60;99.90;;;;;;4923568;28;20465;-82
2023/08/17 05:19:49;;;;;;;2.93;2.63;;;23.60;99.90;;;;;;4923796;28;20472;-82
2023/08/17 05:22:16;;;;;;;2.80;2.33;;;23.60;99.90;;;;;;4925783;28;20534;-82
2023/08/17 05:24:42;;;;;;;3.00;1.93;;;23.60;99.90;;;;;;4926618;28;20473;-81
2023/08/17 05:27:09;;;;;;;2.53;1.97;;;23.60;99.90;;;;;;4928334;28;20464;-81
2023/08/17 05:29:36;;;;;;;2.17;1.97;;;23.50;99.90;;;;;;4927246;28;20462;-81
2023/08/17 05:32:03;;;;;;;3.13;1.90;;;23.60;99.90;;;;;;4925517;28;21107;-81
2023/08/17 05:34:29;;;;;;;3.47;1.87;;;23.60;99.90;;;;;;4931519;28;20471;-81
2023/08/17 05:36:58;;;;;;;2.03;1.93;;;23.60;99.90;;;;;;4932727;28;20901;-81
2023/08/17 05:39:24;;;;;;;2.70;2.50;;;23.60;99.90;;;;;;4934073;28;20506;-80
2023/08/17 05:41:51;;;;;;;2.47;1.87;;;23.50;99.90;;;;;;4925239;28;21425;-80
2023/08/17 05:44:18;;;;;;;2.40;1.83;;;23.60;99.90;;;;;;4929268;28;20489;-82
2023/08/17 05:46:45;;;;;;;2.10;1.93;;;23.60;99.90;;;;;;4928643;28;20480;-82
2023/08/17 05:49:12;;;;;;;2.37;2.17;;;23.60;99.90;;;;;;4927854;28;21809;-82
2023/08/17 05:51:39;;;;;;;3.73;2.17;;;23.50;99.90;;;;;;4929646;28;20470;-81
2023/08/17 05:54:07;;;;;;;2.70;2.50;;;23.50;99.90;;;;;;4932660;28;20471;-82
2023/08/17 05:56:34;;;;;;;2.73;2.53;;;23.50;99.90;;;;;;4932518;28;20475;-86
2023/08/17 05:59:00;;;;;;;2.10;1.53;;;23.50;99.90;;;;;;4928924;28;20469;-83
2023/08/17 06:01:27;;;;;;;3.60;2.50;;;23.50;99.90;;;;;;4927621;28;20970;-83
2023/08/17 06:03:54;;;;;;;2.20;2.00;;;23.50;99.90;;;;;;4932324;28;20493;-83
2023/08/17 06:06:21;;;;;;;2.60;2.40;;;23.50;99.90;;;;;;4928187;28;20475;-83
2023/08/17 06:08:48;;;;;;;2.90;2.70;;;23.50;99.90;;;;;;4928880;28;20574;-83
2023/08/17 06:11:16;;;;;;;2.40;2.03;;;23.50;99.90;;;;;;4929373;28;20797;-83
2023/08/17 06:13:42;;;;;;;3.20;2.30;;;23.50;99.90;;;;;;4932531;29;20483;-83
2023/08/17 06:16:10;;;;;;;2.90;2.10;;;23.50;99.90;;;;;;4927433;28;20843;-82
2023/08/17 06:18:37;;;;;;;3.47;2.40;;;23.50;99.90;;;;;;4929970;28;20567;-82
2023/08/17 06:21:04;;;;;;;2.17;1.97;;;23.40;99.90;;;;;;4932117;29;20466;-82
2023/08/17 06:23:31;;;;;;;2.80;2.23;;;23.40;99.90;;;;;;4925549;28;21208;-82
2023/08/17 06:25:58;;;;;;;3.33;2.93;;;23.40;99.90;;;;;;4929282;28;20464;-82
2023/08/17 06:28:27;;;;;;;2.57;2.30;;;23.40;99.90;;;;;;4924862;28;21014;-82
2023/08/17 06:30:54;;;;;;;3.87;2.30;;;23.40;99.90;;;;;;4929847;28;20468;-82
2023/08/17 06:33:20;;;;;;;5.47;2.83;;;23.40;99.90;;;;;;4937840;28;20987;-81
2023/08/17 06:35:47;;;;;;;2.60;1.97;;;23.40;99.90;;;;;;4953338;28;20459;-82
2023/08/17 06:38:14;;;;;;;2.63;2.43;;;23.40;99.90;;;;;;4940100;28;20473;-81
2023/08/17 06:40:41;;;;;;;2.20;2.00;;;23.40;99.90;;;;;;4940546;28;20466;-80
2023/08/17 06:43:07;;;;;;;5.07;2.27;;;23.40;99.90;;;;;;4937716;28;20633;-81
2023/08/17 06:45:36;;;;;;;4.03;2.40;;;23.40;99.90;;;;;;4945909;28;20855;-80
2023/08/17 06:48:03;;;;;;;2.40;2.07;;;23.40;99.90;;;;;;4936584;28;20469;-80
2023/08/17 06:50:29;;;;;;;2.53;2.10;;;23.30;99.90;;;;;;4934927;28;20494;-81
2023/08/17 06:52:56;;;;;;;2.90;2.37;;;23.30;99.90;;;;;;4934967;28;20462;-85
2023/08/17 06:55:23;;;;;;;3.10;2.10;;;23.30;99.90;;;;;;4941770;28;20462;-80
2023/08/17 06:57:51;;;;;;;3.57;2.47;;;23.30;99.90;;;;;;4928420;28;20989;-80
2023/08/17 07:00:20;;;;;;;5.60;2.60;;;23.30;99.90;;;;;;4928669;28;20985;-80
2023/08/17 07:02:48;;;;;;;3.90;2.47;;;23.30;99.90;;;;;;4929603;29;20502;-80
2023/08/17 07:05:15;;;;;;;2.40;2.13;;;23.30;99.90;;;;;;4932518;28;20463;-79
2023/08/17 07:07:43;;;;;;;3.77;2.90;;;23.30;99.90;;;;;;4932807;28;20446;-79
2023/08/17 07:10:10;;;;;;;3.83;2.60;;;23.30;99.90;;;;;;4930488;28;20495;-79
2023/08/17 07:12:37;;;;;;;2.50;2.30;;;23.30;99.90;;;;;;4931514;28;21006;-80
2023/08/17 07:15:04;;;;;;;3.00;1.93;;;23.30;99.90;;;;;;4930895;28;20477;-80
2023/08/17 07:17:31;;;;;;;2.60;2.40;;;23.30;99.90;;;;;;4929510;28;20994;-80
2023/08/17 07:19:59;;;;;;;3.10;2.70;;;23.20;99.90;;;;;;4929960;28;20491;-82
2023/08/17 07:22:25;;;;;;;2.67;2.47;;;23.20;99.90;;;;;;4925120;28;20987;-82
2023/08/17 07:24:52;;;;;;;3.63;3.10;;;23.20;99.90;;;;;;4927190;29;20489;-82
2023/08/17 07:27:19;;;;;;;6.73;3.80;;;23.20;99.90;;;;;;4924738;28;20473;-82
2023/08/17 07:29:46;;;;;;;8.17;3.77;;;23.20;99.90;;;;;;4925573;28;20466;-82
2023/08/17 07:32:12;;;;;;;3.90;3.47;;;23.20;99.90;;;;;;4919162;28;21203;-82
2023/08/17 07:34:39;;;;;;;4.77;3.60;;;23.20;99.90;;;;;;4919461;28;20508;-82
2023/08/17 07:37:07;;;;;;;3.30;3.03;;;23.10;99.90;;;;;;4922068;28;20469;-81
2023/08/17 07:39:34;;;;;;;4.33;3.47;;;23.10;99.90;;;;;;4925241;28;20466;-81
2023/08/17 07:42:01;;;;;;;4.37;3.50;;;23.10;99.90;;;;;;4920405;28;20890;-81
2023/08/17 07:44:28;;;;;;;4.20;3.77;;;23.10;99.90;;;;;;4922636;28;20834;-82
2023/08/17 07:46:55;;;;;;;7.97;4.90;;;23.10;99.90;;;;;;4926366;28;20478;-82
2023/08/17 07:49:23;;;;;;;4.53;4.13;;;23.00;99.90;;;;;;4924186;28;20485;-81
2023/08/17 07:51:50;;;;;;;5.93;4.77;;;23.00;99.90;;;;;;4923225;28;20958;-81
2023/08/17 07:54:18;;;;;;;5.80;4.70;;;23.00;99.90;;;;;;4928529;28;21266;-81
2023/08/17 07:56:44;;;;;;;8.83;5.13;;;23.00;99.90;;;;;;4928010;28;20993;-81
2023/08/17 07:59:12;;;;;;;13.97;4.97;;;23.00;99.90;;;;;;4928206;28;20474;-81
2023/08/17 08:01:39;;;;;;;6.30;4.90;;;22.90;99.90;;;;;;4922490;28;20470;-81
2023/08/17 08:04:06;;;;;;;5.03;4.63;;;22.90;99.90;;;;;;4927488;28;20488;-81
2023/08/17 08:06:33;;;;;;;9.80;5.50;;;22.80;99.90;;;;;;4927686;28;20967;-83
2023/08/17 08:09:00;;;;;;;7.30;4.43;;;22.80;99.90;;;;;;4925019;28;20512;-80
2023/08/17 08:11:30;;;;;;;9.07;5.50;;;22.80;99.90;;;;;;4925746;29;20473;-82
2023/08/17 08:13:57;;;;;;;6.63;4.70;;;22.80;99.90;;;;;;4924441;28;20462;-81
2023/08/17 08:16:24;;;;;;;6.20;5.33;;;22.80;99.90;;;;;;4915494;28;20477;-81
2023/08/17 08:18:50;;;;;;;8.00;6.33;;;22.80;99.90;;;;;;4924038;28;20500;-81
2023/08/17 08:21:17;;;;;;;6.23;5.33;;;22.80;99.90;;;;;;4928051;28;20464;-81
2023/08/17 08:23:44;;;;;;;7.43;5.80;;;22.70;99.90;;;;;;4920285;28;20490;-83
2023/08/17 08:26:10;;;;;;;8.70;6.33;;;22.70;99.90;;;;;;4924237;28;20983;-83
2023/08/17 08:28:38;;;;;;;12.37;6.13;;;22.70;99.90;;;;;;4925619;28;20479;-81
2023/08/17 08:31:05;;;;;;;7.73;4.90;;;22.70;99.90;;;;;;4923831;28;20470;-86
2023/08/17 08:33:32;;;;;;;8.23;5.60;;;22.80;99.90;;;;;;4923872;28;20467;-84
2023/08/17 08:35:59;;;;;;;20.43;5.27;;;22.70;99.90;;;;;;4911925;28;20473;-84
2023/08/17 08:38:25;;;;;;;11.90;5.47;;;22.80;99.90;;;;;;4926492;28;20470;-84
2023/08/17 08:40:52;;;;;;;7.37;5.10;;;22.70;99.90;;;;;;4920306;28;21434;-84
2023/08/17 08:43:20;;;;;;;8.33;7.53;;;22.80;99.90;;;;;;4922957;28;20588;-84
2023/08/17 08:45:49;;;;;;;9.00;6.00;;;22.80;99.90;;;;;;4928615;28;20479;-84
2023/08/17 08:48:18;;;;;;;7.00;5.83;;;22.80;99.90;;;;;;4929700;28;20502;-82
2023/08/17 08:50:47;;;;;;;11.43;7.03;;;22.80;99.90;;;;;;4925890;28;21065;-84
2023/08/17 08:53:15;;;;;;;9.03;6.80;;;22.80;99.90;;;;;;4925220;28;22080;-82
2023/08/17 08:55:48;;;;;;;9.17;7.07;;;22.70;99.90;;;;;;4927038;28;20533;-84
2023/08/17 08:58:16;;;;;;;8.03;6.80;;;22.70;99.90;;;;;;4929111;28;20466;-82
2023/08/17 09:00:47;;;;;;;11.20;8.77;;;22.70;99.90;;;;;;4929669;28;20450;-83
2023/08/17 09:03:16;;;;;;;11.90;7.30;;;22.70;99.90;;;;;;4922971;28;20565;-83
2023/08/17 09:05:45;;;;;;;11.23;7.30;;;22.70;99.90;;;;;;4924380;28;21156;-83
2023/08/17 09:08:14;;;;;;;10.23;7.87;;;22.70;99.90;;;;;;4925743;28;20791;-82
2023/08/17 09:10:41;;;;;;;10.47;8.10;;;22.70;99.90;;;;;;4926244;28;20493;-82
2023/08/17 09:13:08;;;;;;;10.00;7.30;;;22.60;99.90;;;;;;4927025;28;20465;-82
2023/08/17 09:15:35;;;;;;;12.00;8.23;;;22.60;99.90;;;;;;4917056;28;20967;-83
2023/08/17 09:18:05;;;;;;;9.27;7.60;;;22.60;99.90;;;;;;4921228;28;22051;-83
2023/08/17 09:20:39;;;;;;;8.63;7.70;;;22.60;99.90;;;;;;4928391;28;20492;-83
2023/08/17 09:23:11;;;;;;;9.13;6.63;;;22.60;99.90;;;;;;4925635;28;20872;-83
2023/08/17 09:25:40;;;;;;;6.23;5.63;;;22.50;99.90;;;;;;4924243;28;20580;-82
2023/08/17 09:28:09;;;;;;;8.30;6.47;;;22.50;99.90;;;;;;4927518;28;20467;-83
2023/08/17 09:30:54;;;;;;;8.60;6.80;;;22.50;99.90;;;;;;4925401;28;20474;-83
2023/08/17 09:33:21;;;;;;;11.37;6.97;;;22.50;99.90;;;;;;4924521;28;20939;-82
2023/08/17 09:35:50;;;;;;;10.33;7.50;;;22.50;99.90;;;;;;4924046;28;20477;-82
2023/08/17 09:38:17;;;;;;;8.00;7.20;;;22.40;99.90;;;;;;4926252;28;20468;-83
2023/08/17 09:40:44;;;;;;;9.00;6.20;;;22.50;99.90;;;;;;4925772;28;21090;-82
2023/08/17 09:43:11;;;;;;;7.10;5.73;;;22.40;99.90;;;;;;4924997;28;20975;-82
2023/08/17 09:45:39;;;;;;;9.90;7.43;;;22.40;99.90;;;;;;4924751;28;20495;-83
2023/08/17 09:48:06;;;;;;;8.60;5.70;;;22.40;99.90;;;;;;4924604;28;20471;-83
2023/08/17 09:50:33;;;;;;;10.30;5.77;;;22.40;99.90;;;;;;4923257;28;20993;-82
2023/08/17 09:53:03;;;;;;;9.23;8.43;;;22.40;99.90;;;;;;4926054;28;20476;-82
2023/08/17 09:55:32;;;;;;;9.70;8.30;;;22.40;99.90;;;;;;4929782;28;20469;-82
2023/08/17 09:57:59;;;;;;;9.30;8.40;;;22.40;99.90;;;;;;4924565;28;20462;-82
2023/08/17 10:00:27;;;;;;;10.40;7.87;;;22.40;99.90;;;;;;4924103;28;20469;-82
2023/08/17 10:02:56;;;;;;;8.47;6.57;;;22.40;99.90;;;;;;4924554;28;20463;-84
2023/08/17 10:05:23;;;;;;;8.83;6.67;;;22.40;99.90;;;;;;4926349;28;20486;-83
2023/08/17 10:07:55;;;;;;;6.60;6.00;;;22.40;99.90;;;;;;4939529;28;20471;-88
2023/08/17 10:10:27;;;;;;;7.53;6.83;;;22.40;99.90;;;;;;4939728;28;20472;-87
2023/08/17 10:13:00;;;;;;;8.57;7.30;;;22.40;99.90;;;;;;4939354;28;20836;-91
2023/08/17 10:15:30;;;;;;;11.50;7.40;;;22.40;99.90;;;;;;4942022;28;20454;-91
2023/08/17 10:18:06;;;;;;;8.00;6.63;;;22.40;99.90;;;;;;4936827;28;20454;-88
2023/08/17 10:20:35;;;;;;;9.87;7.37;;;22.40;99.90;;;;;;4935581;28;20952;-88
2023/08/17 10:23:11;;;;;;;9.43;8.63;;;22.40;99.90;;;;;;4929900;28;20453;-87
2023/08/17 10:25:40;;;;;;;8.13;7.33;;;22.40;99.90;;;;;;4915242;28;20861;-86
2023/08/17 10:28:08;;;;;;;8.30;7.13;;;22.50;99.90;;;;;;4909165;29;20928;-86
2023/08/17 10:30:35;;;;;;;7.90;7.10;;;22.50;99.90;;;;;;4905464;29;20471;-87
2023/08/17 10:33:03;;;;;;;11.27;8.90;;;22.50;99.90;;;;;;4912793;29;20466;-87
2023/08/17 10:35:31;;;;;;;14.53;8.43;;;22.50;99.90;;;;;;4908821;29;20478;-91
2023/08/17 10:37:58;;;;;;;10.33;8.57;;;22.60;99.90;;;;;;4905971;29;20463;-88
2023/08/17 10:40:28;;;;;;;8.77;7.57;;;22.60;99.90;;;;;;4903766;29;20489;-88
2023/08/17 10:42:56;;;;;;;9.13;7.33;;;22.60;99.90;;;;;;4907581;29;21033;-87
2023/08/17 10:45:29;;;;;;;8.87;7.40;;;22.60;99.90;;;;;;4906333;29;20498;-86
2023/08/17 10:48:29;;;;;;;10.93;8.70;;;22.60;99.90;;;;;;4912298;29;20982;-88
2023/08/17 10:51:06;;;;;;;7.63;6.93;;;22.70;99.90;;;;;;4909734;29;20487;-89
2023/08/17 10:53:43;;;;;;;10.00;8.43;;;22.70;99.90;;;;;;4908831;29;21006;-88
2023/08/17 10:56:13;;;;;;;7.67;6.97;;;22.70;99.90;;;;;;4910371;29;20455;-88
2023/08/17 10:58:43;;;;;;;8.60;7.23;;;22.70;99.90;;;;;;4910053;29;20972;-90
2023/08/17 11:01:10;;;;;;;10.20;8.43;;;22.70;99.90;;;;;;4913390;29;20466;-90
2023/08/17 11:03:37;;;;;;;7.80;6.97;;;22.70;99.90;;;;;;4914321;28;20542;-90
2023/08/17 11:06:18;;;;;;;8.40;7.60;;;22.80;99.90;;;;;;4930210;28;20483;-88
2023/08/17 11:08:56;;;;;;;10.30;7.87;;;22.80;99.90;;;;;;4932269;28;20843;-89
2023/08/17 11:11:23;;;;;;;7.83;7.13;;;22.80;99.90;;;;;;4929420;28;20860;-88
2023/08/17 11:13:54;;;;;;;8.67;7.20;;;22.80;99.90;;;;;;4928438;28;20453;-88
2023/08/17 11:16:20;;;;;;;11.10;9.13;;;22.80;99.90;;;;;;4924045;28;20831;-87
2023/08/17 11:18:49;;;;;;;8.70;7.80;;;22.80;99.90;;;;;;4927253;28;20465;-88
2023/08/17 11:21:17;;;;;;;9.03;8.20;;;22.80;99.90;;;;;;4924307;28;20476;-92
2023/08/17 11:23:44;;;;;;;8.47;7.67;;;22.90;99.90;;;;;;4923363;28;20468;-92
2023/08/17 11:26:11;;;;;;;9.40;8.50;;;22.90;99.90;;;;;;4930192;28;20852;-88
2023/08/17 11:28:40;;;;;;;11.30;9.33;;;22.90;99.90;;;;;;4920967;28;20827;-89
2023/08/17 11:31:10;;;;;;;9.03;8.00;;;23.00;99.90;;;;;;4920072;28;20499;-89
2023/08/17 11:33:38;;;;;;;9.70;8.70;;;23.00;99.90;;;;;;4923207;28;20465;-89
2023/08/17 11:36:06;;;;;;;10.43;9.43;;;23.00;99.90;;;;;;4927621;28;21404;-88
2023/08/17 11:38:34;;;;;;;11.83;8.80;;;23.00;99.90;;;;;;4926177;28;21078;-90
2023/08/17 11:41:03;;;;;;;9.93;9.00;;;23.00;99.90;;;;;;4929389;28;20468;-92
2023/08/17 11:43:31;;;;;;;7.73;7.03;;;23.00;99.90;;;;;;4928499;28;20547;-93
2023/08/17 11:45:58;;;;;;;12.70;7.33;;;23.00;99.90;;;;;;4926827;28;21076;-92
2023/08/17 11:48:27;;;;;;;7.90;7.10;;;23.00;99.90;;;;;;4929626;28;21137;-91
2023/08/17 11:50:54;;;;;;;8.17;6.90;;;23.00;99.90;;;;;;4929079;28;20663;-91
2023/08/17 11:53:21;;;;;;;9.37;6.37;;;23.10;99.90;;;;;;4930048;28;20475;-89
2023/08/17 11:55:48;;;;;;;9.20;7.00;;;23.10;99.90;;;;;;4931161;28;20456;-89
2023/08/17 11:58:15;;;;;;;7.77;6.10;;;23.10;99.90;;;;;;4929255;28;20476;-87
2023/08/17 12:00:45;;;;;;;8.90;5.47;;;23.10;99.90;;;;;;4930021;28;20466;-84
2023/08/17 12:03:15;;;;;;;6.83;6.17;;;23.20;99.90;;;;;;4940535;28;21073;-86
2023/08/17 12:05:45;;;;;;;7.40;6.00;;;23.20;99.90;;;;;;4937187;28;20919;-84
2023/08/17 12:08:13;;;;;;;6.20;5.70;;;23.20;99.90;;;;;;4930860;28;20456;-84
2023/08/17 12:10:40;;;;;;;6.53;5.90;;;23.20;99.90;;;;;;4930151;28;20463;-85
2023/08/17 12:13:07;;;;;;;8.27;7.47;;;23.20;99.90;;;;;;4933674;28;20482;-83
2023/08/17 12:15:35;;;;;;;7.33;6.70;;;23.30;99.90;;;;;;4929746;28;20477;-83
2023/08/17 12:18:04;;;;;;;7.73;6.77;;;23.20;99.90;;;;;;4935688;28;20548;-84
2023/08/17 12:20:35;;;;;;;7.27;5.63;;;23.20;99.90;;;;;;4941894;28;20452;-90
2023/08/17 12:23:03;;;;;;;6.67;6.07;;;23.30;99.90;;;;;;4942997;28;20466;-89
2023/08/17 12:25:31;;;;;;;8.60;7.80;;;23.30;99.90;;;;;;4943299;28;20483;-88
2023/08/17 12:27:59;;;;;;;8.00;7.20;;;23.30;99.90;;;;;;4943042;28;20488;-85
2023/08/17 12:30:27;;;;;;;7.70;6.67;;;23.30;99.90;;;;;;4944837;28;20531;-91
2023/08/17 12:32:54;;;;;;;7.83;7.03;;;23.30;99.90;;;;;;4946868;28;20466;-91
2023/08/17 12:35:23;;;;;;;7.80;7.10;;;23.40;99.90;;;;;;4948132;28;20815;-92
2023/08/17 12:37:49;;;;;;;8.80;7.90;;;23.40;99.90;;;;;;4938445;28;20457;-81
2023/08/17 12:40:17;;;;;;;7.40;6.80;;;23.40;99.90;;;;;;4927121;28;20472;-81
2023/08/17 12:42:44;;;;;;;8.30;6.93;;;23.40;99.90;;;;;;4928059;28;20472;-83
2023/08/17 12:45:11;;;;;;;9.80;7.20;;;23.40;99.90;;;;;;4935446;28;20498;-82
2023/08/17 12:47:38;;;;;;;8.43;7.70;;;23.50;99.90;;;;;;4928631;28;21002;-83
2023/08/17 12:50:06;;;;;;;7.53;6.80;;;23.40;99.90;;;;;;4932393;28;20580;-81